Harviell, Missouri
Current Conditions -  °F | °C
As of 8:11 AM on Saturday 25 Oct 2014 (Local Time) from KPOF Reporting Station
Haze Haze  
Wind Chill: 57°   Ceiling: Unl
Heat Index: 57°   Visibility: 3mi
Dew Point: 54°   Wind: 0mph
Humidity: 89%   Direction: NA
Pressure: 30.05"   Gusts: NA
Location:  36.66°N, 90.47°W
Report Text: KPOF 251311Z AUTO 00000KT 3SM BR CLR 14/12 A3005 RMK AO2 T01390122
Loading
Personal Weather Stations






























Interactive Weather Map
Tropical Storm Tracking
New forecast layout! Learn more

10-Day Weather Forecast

Advertisements
Track Severe Weather on mobile